createdAt,value
2022-08-23T00:01:39.221Z,84.38
2022-08-23T00:04:12.835Z,84.47
2022-08-23T00:06:42.450Z,84.44
2022-08-23T00:09:12.186Z,84.24
2022-08-23T00:11:49.655Z,84.41
2022-08-23T00:14:27.213Z,84.37
2022-08-23T00:16:57.754Z,84.41
2022-08-23T00:19:27.596Z,84.52
2022-08-23T00:21:56.794Z,84.38
2022-08-23T00:24:26.129Z,84.59
2022-08-23T00:27:10.715Z,84.52
2022-08-23T00:29:50.695Z,84.54
2022-08-23T00:32:23.570Z,84.65
2022-08-23T00:34:52.239Z,84.72
2022-08-23T00:37:21.937Z,84.85
2022-08-23T00:39:49.810Z,84.92
2022-08-23T00:43:16.042Z,85.02
2022-08-23T00:46:17.586Z,85.10
2022-08-23T00:48:46.152Z,85.08
2022-08-23T00:51:22.813Z,85.01
2022-08-23T00:53:58.637Z,85.15
2022-08-23T00:56:30.599Z,85.21
2022-08-23T00:58:59.314Z,85.20
2022-08-23T01:01:28.074Z,85.32
2022-08-23T01:04:04.733Z,85.24
2022-08-23T01:06:45.435Z,85.02
2022-08-23T01:09:18.711Z,84.95
2022-08-23T01:12:00.186Z,84.91
2022-08-23T01:14:40.784Z,85.00
2022-08-23T01:17:46.106Z,85.07
2022-08-23T01:20:21.456Z,85.25
2022-08-23T01:23:04.343Z,84.98
2022-08-23T01:25:34.688Z,85.06
2022-08-23T01:28:03.578Z,84.90
2022-08-23T01:30:33.779Z,84.89
2022-08-23T01:33:07.354Z,85.00
2022-08-23T01:35:44.887Z,84.89
2022-08-23T01:38:14.333Z,84.98
2022-08-23T01:40:44.882Z,85.21
2022-08-23T01:43:15.428Z,85.26
2022-08-23T01:45:43.798Z,85.44
2022-08-23T01:48:14.976Z,85.39
2022-08-23T01:50:43.062Z,85.32
2022-08-23T01:53:12.151Z,85.54
2022-08-23T01:55:44.255Z,85.46
2022-08-23T01:58:12.938Z,85.31
2022-08-23T02:00:44.395Z,85.39
2022-08-23T02:03:14.317Z,85.40
2022-08-23T02:05:43.440Z,85.47
2022-08-23T02:08:31.675Z,85.64
2022-08-23T02:11:07.689Z,85.69
2022-08-23T02:13:36.314Z,85.63
2022-08-23T02:16:05.030Z,85.65
2022-08-23T02:18:33.681Z,85.51
2022-08-23T02:21:02.101Z,85.50
2022-08-23T02:23:30.522Z,85.50
2022-08-23T02:25:58.383Z,85.47
2022-08-23T02:28:26.204Z,85.49
2022-08-23T02:30:54.719Z,85.57
2022-08-23T02:33:23.771Z,85.64
2022-08-23T02:35:51.834Z,85.57
2022-08-23T02:38:20.714Z,85.66
2022-08-23T02:41:00.609Z,85.58
2022-08-23T02:43:29.079Z,85.43
2022-08-23T02:45:57.166Z,85.43
2022-08-23T02:48:25.671Z,85.38
2022-08-23T02:51:05.673Z,85.35
2022-08-23T02:53:34.058Z,85.34
2022-08-23T02:56:03.026Z,85.24
2022-08-23T02:58:30.876Z,85.30
2022-08-23T03:00:59.688Z,85.06
2022-08-23T03:03:28.358Z,84.94
2022-08-23T03:05:57.243Z,84.72
2022-08-23T03:08:45.649Z,84.79
2022-08-23T03:11:18.149Z,85.04
2022-08-23T03:13:46.857Z,84.97
2022-08-23T03:16:17.108Z,84.94
2022-08-23T03:18:47.783Z,85.07
2022-08-23T03:21:17.234Z,85.16
2022-08-23T03:23:46.280Z,85.31
2022-08-23T03:26:16.326Z,85.40
2022-08-23T03:28:45.772Z,85.14
2022-08-23T03:31:16.825Z,85.23
2022-08-23T03:33:54.258Z,85.14
2022-08-23T03:36:28.101Z,85.22
2022-08-23T03:38:56.769Z,85.37
2022-08-23T03:41:25.583Z,85.32
2022-08-23T03:43:53.454Z,85.43
2022-08-23T03:46:24.436Z,85.56
2022-08-23T03:49:01.214Z,85.68
2022-08-23T03:51:34.416Z,85.72
2022-08-23T03:54:03.251Z,85.72
2022-08-23T03:56:38.775Z,85.67
2022-08-23T03:59:13.758Z,85.60
2022-08-23T04:01:41.927Z,85.71
2022-08-23T04:04:10.811Z,85.72
2022-08-23T04:06:45.102Z,85.76
2022-08-23T04:09:15.406Z,85.79
2022-08-23T04:11:44.801Z,85.84
2022-08-23T04:14:13.666Z,85.88
2022-08-23T04:16:42.063Z,85.84
2022-08-23T04:19:14.809Z,85.88
2022-08-23T04:21:52.828Z,85.84
2022-08-23T04:24:21.022Z,85.70
2022-08-23T04:26:49.512Z,85.54
2022-08-23T04:29:33.655Z,85.59
2022-08-23T04:32:05.617Z,85.70
2022-08-23T04:34:39.906Z,85.80
2022-08-23T04:37:10.060Z,85.78
2022-08-23T04:39:58.793Z,85.63
2022-08-23T04:42:30.005Z,85.58
2022-08-23T04:44:57.848Z,85.57
2022-08-23T04:47:25.686Z,85.72
2022-08-23T04:49:53.974Z,85.48
2022-08-23T04:52:21.852Z,85.52
2022-08-23T04:54:50.349Z,85.32
2022-08-23T04:57:36.797Z,85.30
2022-08-23T05:00:07.009Z,85.36
2022-08-23T05:02:36.174Z,85.56
2022-08-23T05:05:05.571Z,85.48
2022-08-23T05:07:42.392Z,85.58
2022-08-23T05:10:16.340Z,85.57
2022-08-23T05:12:48.706Z,85.35
2022-08-23T05:15:17.589Z,85.40
2022-08-23T05:17:47.638Z,85.31
2022-08-23T05:20:15.607Z,85.15
2022-08-23T05:22:43.556Z,85.19
2022-08-23T05:25:22.111Z,85.16
2022-08-23T05:27:50.480Z,85.14
2022-08-23T05:30:18.395Z,85.22
2022-08-23T05:32:46.669Z,85.16
2022-08-23T05:35:14.702Z,84.95
2022-08-23T05:37:44.309Z,85.17
2022-08-23T05:40:12.156Z,85.16
2022-08-23T05:42:48.667Z,85.24
2022-08-23T05:45:21.712Z,85.06
2022-08-23T05:47:50.014Z,85.14
2022-08-23T05:50:26.910Z,85.29
2022-08-23T05:52:54.824Z,85.33
2022-08-23T05:55:23.609Z,85.30
2022-08-23T05:58:17.351Z,85.16
2022-08-23T06:00:45.316Z,85.01
2022-08-23T06:03:13.553Z,85.06
2022-08-23T06:05:42.168Z,85.17
2022-08-23T06:08:11.456Z,84.82
2022-08-23T06:10:42.317Z,84.69
2022-08-23T06:13:27.003Z,84.67
2022-08-23T06:15:57.515Z,84.77
2022-08-23T06:18:28.696Z,84.76
2022-08-23T06:21:09.027Z,84.67
2022-08-23T06:23:49.612Z,84.73
2022-08-23T06:26:23.990Z,84.55
2022-08-23T06:28:57.061Z,84.52
2022-08-23T06:31:45.501Z,84.17
2022-08-23T06:34:26.274Z,83.96
2022-08-23T06:37:23.200Z,84.00
2022-08-23T06:40:09.917Z,84.08
2022-08-23T06:42:49.655Z,84.14
2022-08-23T06:45:33.850Z,83.82
2022-08-23T06:48:08.226Z,83.69
2022-08-23T06:50:36.153Z,83.45
2022-08-23T06:53:22.403Z,82.70
2022-08-23T06:56:28.345Z,82.49
2022-08-23T06:59:09.414Z,82.69
2022-08-23T07:02:01.891Z,82.74
2022-08-23T07:04:53.862Z,82.69
2022-08-23T07:07:41.472Z,82.69
2022-08-23T07:10:15.494Z,82.80
2022-08-23T07:12:44.283Z,82.62
2022-08-23T07:15:14.387Z,82.57
2022-08-23T07:17:46.414Z,82.36
2022-08-23T07:20:14.526Z,81.92
2022-08-23T07:22:44.578Z,81.37
2022-08-23T07:25:12.819Z,81.30
2022-08-23T07:27:41.628Z,81.41
2022-08-23T07:30:11.633Z,81.09
2022-08-23T07:32:41.658Z,81.01
2022-08-23T07:35:21.491Z,80.96
2022-08-23T07:37:50.655Z,80.70
2022-08-23T07:40:20.574Z,80.15
2022-08-23T07:42:49.606Z,80.09
2022-08-23T07:45:18.540Z,79.79
2022-08-23T07:47:51.795Z,79.52
2022-08-23T07:50:20.130Z,78.77
2022-08-23T07:52:48.722Z,78.26
2022-08-23T07:55:16.948Z,78.35
2022-08-23T07:58:07.730Z,78.09
2022-08-23T08:00:56.265Z,77.34
2022-08-23T08:03:33.827Z,77.55
2022-08-23T08:06:43.895Z,77.02
2022-08-23T08:09:13.379Z,77.15
2022-08-23T08:11:45.267Z,77.38
2022-08-23T08:14:16.160Z,76.43
2022-08-23T08:16:52.311Z,75.75
2022-08-23T08:19:33.906Z,75.89
2022-08-23T08:22:24.568Z,75.93
2022-08-23T08:25:12.132Z,76.02
2022-08-23T08:27:42.077Z,76.14
2022-08-23T08:30:12.529Z,75.75
2022-08-23T08:32:47.198Z,75.69
2022-08-23T08:35:26.287Z,75.80
2022-08-23T08:37:54.342Z,75.60
2022-08-23T08:40:37.847Z,74.99
2022-08-23T08:43:41.510Z,75.17
2022-08-23T08:46:18.273Z,74.09
2022-08-23T08:48:53.748Z,73.81
2022-08-23T08:51:28.643Z,73.43
2022-08-23T08:53:58.939Z,73.01
2022-08-23T08:56:36.822Z,72.49
2022-08-23T08:59:18.628Z,72.80
2022-08-23T09:01:48.656Z,72.20
2022-08-23T09:04:22.239Z,72.07
2022-08-23T09:07:12.550Z,71.78
2022-08-23T09:10:09.744Z,71.47
2022-08-23T09:13:05.372Z,70.62
2022-08-23T09:15:55.955Z,70.24
2022-08-23T09:18:24.382Z,70.04
2022-08-23T09:20:55.594Z,69.81
2022-08-23T09:23:32.363Z,69.11
2022-08-23T09:26:15.689Z,68.71
2022-08-23T09:28:46.204Z,68.73
2022-08-23T09:31:47.409Z,68.00
2022-08-23T09:34:37.105Z,68.05
2022-08-23T09:37:12.967Z,68.09
2022-08-23T09:40:14.234Z,67.85
2022-08-23T09:42:42.535Z,67.45
2022-08-23T09:45:35.896Z,67.10
2022-08-23T09:48:07.006Z,67.18
2022-08-23T09:50:50.378Z,67.39
2022-08-23T09:53:28.112Z,67.67
2022-08-23T09:56:11.412Z,67.63
2022-08-23T09:58:44.791Z,67.67
2022-08-23T10:01:26.603Z,67.85
2022-08-23T10:04:21.690Z,67.77
2022-08-23T10:06:51.634Z,68.34
2022-08-23T10:09:31.558Z,68.80
2022-08-23T10:12:02.317Z,67.91
2022-08-23T10:14:33.030Z,67.40
2022-08-23T10:17:04.882Z,66.69
2022-08-23T10:20:02.960Z,66.52
2022-08-23T10:22:58.307Z,66.15
2022-08-23T10:25:42.528Z,65.57
2022-08-23T10:28:35.759Z,65.47
2022-08-23T10:31:19.566Z,65.94
2022-08-23T10:34:32.468Z,65.34
2022-08-23T10:37:37.287Z,65.91
2022-08-23T10:40:28.721Z,65.68
2022-08-23T10:43:27.263Z,65.68
2022-08-23T10:46:00.760Z,65.06
2022-08-23T10:48:51.511Z,64.92
2022-08-23T10:51:31.639Z,63.99
2022-08-23T10:54:12.612Z,63.91
2022-08-23T10:56:51.046Z,63.59
2022-08-23T10:59:25.983Z,63.09
2022-08-23T11:02:05.295Z,63.50
2022-08-23T11:04:59.119Z,62.53
2022-08-23T11:07:34.898Z,62.02
2022-08-23T11:10:25.335Z,62.42
2022-08-23T11:13:03.881Z,62.47
2022-08-23T11:15:44.822Z,62.10
2022-08-23T11:18:48.610Z,62.30
2022-08-23T11:21:33.444Z,62.04
2022-08-23T11:24:04.910Z,62.05
2022-08-23T11:26:37.768Z,61.95
2022-08-23T11:29:10.835Z,62.39
2022-08-23T11:32:14.713Z,62.19
2022-08-23T11:34:56.420Z,61.86
2022-08-23T11:37:47.629Z,62.25
2022-08-23T11:40:40.962Z,62.90
2022-08-23T11:43:32.800Z,63.16
2022-08-23T11:46:25.876Z,63.28
2022-08-23T11:49:18.555Z,63.28
2022-08-23T11:52:31.759Z,62.99
2022-08-23T11:55:31.041Z,62.96
2022-08-23T11:58:50.837Z,62.96
2022-08-23T12:01:39.418Z,63.23
2022-08-23T12:04:31.632Z,63.24
2022-08-23T12:07:07.714Z,63.60
2022-08-23T12:09:36.635Z,63.89
2022-08-23T12:12:13.647Z,64.06
2022-08-23T12:14:44.251Z,64.20
2022-08-23T12:17:12.007Z,63.91
2022-08-23T12:19:53.864Z,63.88
2022-08-23T12:22:28.681Z,63.99
2022-08-23T12:25:19.802Z,63.46
2022-08-23T12:27:57.638Z,63.06
2022-08-23T12:30:36.251Z,63.31
2022-08-23T12:33:43.398Z,63.15
2022-08-23T12:36:29.806Z,64.06
2022-08-23T12:39:19.686Z,64.48
2022-08-23T12:42:18.302Z,64.53
2022-08-23T12:45:00.311Z,64.85
2022-08-23T12:47:28.223Z,65.03
2022-08-23T12:50:21.012Z,65.14
2022-08-23T12:53:15.789Z,66.33
2022-08-23T12:55:52.219Z,67.79
2022-08-23T12:58:33.355Z,67.92
2022-08-23T13:01:16.847Z,67.83
2022-08-23T13:03:51.913Z,68.26
2022-08-23T13:06:25.702Z,68.17
2022-08-23T13:09:04.454Z,67.81
2022-08-23T13:11:34.772Z,67.23
2022-08-23T13:14:35.084Z,66.81
2022-08-23T13:17:26.634Z,66.50
2022-08-23T13:20:22.991Z,66.23
2022-08-23T13:23:15.304Z,65.80
2022-08-23T13:25:43.724Z,65.43
2022-08-23T13:28:31.176Z,64.68
2022-08-23T13:31:05.048Z,64.56
2022-08-23T13:33:32.984Z,64.43
2022-08-23T13:36:19.335Z,63.60
2022-08-23T13:38:50.361Z,63.04
2022-08-23T13:41:38.979Z,62.63
2022-08-23T13:44:09.421Z,61.79
2022-08-23T13:46:47.096Z,62.88
2022-08-23T13:49:22.576Z,62.41
2022-08-23T13:54:58.852Z,62.55
2022-08-23T13:57:30.076Z,63.19
2022-08-23T14:00:02.339Z,63.28
2022-08-23T14:02:39.289Z,62.82
2022-08-23T14:05:09.649Z,62.98
2022-08-23T14:07:37.554Z,63.39
2022-08-23T14:10:06.066Z,63.15
2022-08-23T14:12:35.889Z,63.36
2022-08-23T14:15:06.868Z,63.36
2022-08-23T14:17:43.062Z,62.76
2022-08-23T14:23:04.857Z,63.05
2022-08-23T14:25:39.942Z,62.91
2022-08-23T14:28:07.743Z,62.62
2022-08-23T14:30:37.098Z,62.43
2022-08-23T14:33:06.403Z,62.52
2022-08-23T14:35:34.387Z,62.31
2022-08-23T14:38:03.798Z,62.16
2022-08-23T14:40:36.162Z,61.15
2022-08-23T14:43:05.772Z,60.79
2022-08-23T14:45:33.552Z,61.22
2022-08-23T14:48:02.342Z,60.96
2022-08-23T14:50:31.095Z,61.15
2022-08-23T14:52:59.069Z,61.10
2022-08-23T14:55:27.315Z,61.21
2022-08-23T14:57:55.180Z,60.79
2022-08-23T15:00:23.638Z,60.83
2022-08-23T15:02:51.639Z,60.88
2022-08-23T15:05:19.626Z,60.91
2022-08-23T15:07:47.469Z,61.17
2022-08-23T15:13:28.425Z,61.75
2022-08-23T15:15:53.818Z,61.73
2022-08-23T15:18:22.159Z,61.58
2022-08-23T15:20:52.404Z,61.54
2022-08-23T15:23:21.215Z,61.60
2022-08-23T15:25:49.943Z,61.63
2022-08-23T15:28:21.379Z,61.92
2022-08-23T15:30:51.546Z,61.99
2022-08-23T15:33:23.380Z,61.69
2022-08-23T15:35:55.755Z,62.04
2022-08-23T15:38:25.726Z,62.11
2022-08-23T15:40:54.907Z,62.54
2022-08-23T15:43:28.774Z,62.90
2022-08-23T15:46:06.733Z,63.00
2022-08-23T15:48:43.954Z,63.10
2022-08-23T15:51:12.427Z,63.30
2022-08-23T15:53:40.527Z,63.79
2022-08-23T15:56:15.299Z,63.95
2022-08-23T15:58:43.709Z,64.03
2022-08-23T16:01:12.219Z,63.89
2022-08-23T16:03:42.428Z,63.92
2022-08-23T16:06:13.997Z,63.71
2022-08-23T16:08:49.523Z,63.65
2022-08-23T16:11:17.355Z,63.78
2022-08-23T16:13:48.452Z,63.38
2022-08-23T16:16:28.996Z,63.10
2022-08-23T16:19:00.098Z,62.46
2022-08-23T16:21:30.802Z,62.62
2022-08-23T16:23:59.366Z,62.74
2022-08-23T16:26:35.662Z,62.55
2022-08-23T16:29:10.011Z,62.21
2022-08-23T16:31:39.848Z,62.25
2022-08-23T16:34:12.547Z,62.37
2022-08-23T16:36:44.186Z,62.00
2022-08-23T16:39:15.179Z,61.26
2022-08-23T16:41:43.150Z,60.57
2022-08-23T16:44:11.043Z,59.16
2022-08-23T16:46:43.938Z,58.83
2022-08-23T16:49:16.885Z,58.83
2022-08-23T16:51:46.528Z,58.81
2022-08-23T16:54:14.739Z,59.05
2022-08-23T16:56:43.544Z,59.05
2022-08-23T16:59:13.354Z,59.12
2022-08-23T17:01:55.721Z,59.37
2022-08-23T17:04:30.315Z,59.71
2022-08-23T17:07:00.064Z,59.88
2022-08-23T17:09:29.273Z,60.19
2022-08-23T17:12:01.050Z,60.57
2022-08-23T17:14:28.868Z,60.62
2022-08-23T17:16:56.764Z,60.78
2022-08-23T17:19:24.838Z,60.92
2022-08-23T17:21:54.851Z,61.07
2022-08-23T17:24:23.742Z,61.09
2022-08-23T17:26:51.594Z,61.33
2022-08-23T17:29:20.340Z,61.61
2022-08-23T17:31:48.810Z,61.73
2022-08-23T17:34:16.681Z,61.96
2022-08-23T17:36:50.828Z,62.43
2022-08-23T17:39:27.305Z,62.37
2022-08-23T17:41:57.844Z,62.63
2022-08-23T17:44:25.795Z,62.61
2022-08-23T17:46:53.785Z,62.57
2022-08-23T17:49:21.722Z,63.12
2022-08-23T17:51:49.563Z,63.40
2022-08-23T17:54:18.489Z,63.76
2022-08-23T17:56:49.926Z,63.95
2022-08-23T17:59:22.566Z,63.89
2022-08-23T18:01:52.084Z,64.16
2022-08-23T18:04:19.881Z,64.19
2022-08-23T18:06:47.880Z,64.31
2022-08-23T18:09:16.475Z,64.48
2022-08-23T18:11:44.622Z,64.53
2022-08-23T18:14:12.502Z,64.54
2022-08-23T18:16:45.379Z,64.61
2022-08-23T18:19:13.558Z,64.92
2022-08-23T18:21:43.146Z,65.13
2022-08-23T18:24:11.446Z,65.36
2022-08-23T18:26:59.189Z,65.59
2022-08-23T18:29:29.438Z,65.94
2022-08-23T18:31:57.380Z,66.12
2022-08-23T18:34:25.519Z,66.26
2022-08-23T18:36:53.821Z,66.55
2022-08-23T18:39:27.623Z,66.81
2022-08-23T18:42:05.775Z,66.98
2022-08-23T18:44:33.646Z,67.14
2022-08-23T18:47:03.486Z,67.38
2022-08-23T18:49:33.767Z,67.50
2022-08-23T18:52:02.635Z,67.67
2022-08-23T18:54:33.942Z,67.98
2022-08-23T18:57:03.566Z,68.31
2022-08-23T18:59:31.611Z,68.37
2022-08-23T19:01:59.628Z,68.32
2022-08-23T19:04:27.704Z,68.46
2022-08-23T19:06:55.819Z,68.62
2022-08-23T19:09:23.587Z,68.99
2022-08-23T19:11:51.420Z,69.23
2022-08-23T19:14:19.410Z,69.73
2022-08-23T19:16:48.478Z,69.95
2022-08-23T19:19:18.783Z,70.04
2022-08-23T19:21:47.153Z,70.39
2022-08-23T19:24:15.104Z,70.64
2022-08-23T19:26:47.398Z,71.22
2022-08-23T19:29:18.634Z,71.53
2022-08-23T19:31:48.265Z,71.68
2022-08-23T19:34:19.896Z,72.02
2022-08-23T19:36:54.653Z,72.36
2022-08-23T19:39:27.773Z,72.60
2022-08-23T19:41:55.650Z,72.79
2022-08-23T19:44:24.232Z,73.06
2022-08-23T19:46:52.366Z,73.59
2022-08-23T19:49:20.279Z,73.97
2022-08-23T19:51:48.107Z,74.19
2022-08-23T19:54:16.374Z,74.31
2022-08-23T19:56:54.806Z,74.51
2022-08-23T19:59:30.513Z,74.57
2022-08-23T20:01:59.855Z,74.79
2022-08-23T20:04:32.439Z,74.86
2022-08-23T20:07:04.262Z,74.96
2022-08-23T20:09:33.376Z,75.07
2022-08-23T20:12:02.504Z,75.29
2022-08-23T20:14:33.192Z,75.46
2022-08-23T20:17:04.435Z,75.65
2022-08-23T20:19:32.191Z,75.68
2022-08-23T20:22:19.946Z,75.70
2022-08-23T20:24:51.913Z,75.94
2022-08-23T20:27:28.287Z,76.04
2022-08-23T20:30:06.172Z,76.05
2022-08-23T20:32:34.723Z,76.32
2022-08-23T20:35:06.935Z,76.33
2022-08-23T20:37:35.955Z,76.57
2022-08-23T20:40:07.005Z,76.81
2022-08-23T20:42:34.721Z,76.96
2022-08-23T20:45:02.961Z,77.05
2022-08-23T20:47:30.768Z,77.16
2022-08-23T20:49:58.568Z,77.20
2022-08-23T20:52:26.683Z,77.27
2022-08-23T20:54:54.472Z,77.28
2022-08-23T20:57:22.314Z,77.34
2022-08-23T20:59:50.119Z,77.48
2022-08-23T21:02:18.121Z,77.72
2022-08-23T21:04:46.110Z,77.80
2022-08-23T21:07:15.759Z,77.97
2022-08-23T21:09:43.731Z,77.95
2022-08-23T21:12:11.600Z,78.04
2022-08-23T21:14:39.427Z,78.16
2022-08-23T21:17:07.712Z,78.24
2022-08-23T21:19:35.583Z,78.41
2022-08-23T21:22:03.735Z,78.58
2022-08-23T21:24:32.231Z,78.73
2022-08-23T21:27:00.158Z,78.66
2022-08-23T21:29:27.949Z,78.93
2022-08-23T21:31:55.738Z,78.97
2022-08-23T21:34:23.783Z,78.96
2022-08-23T21:36:52.294Z,78.86
2022-08-23T21:39:20.426Z,78.93
2022-08-23T21:41:48.441Z,79.25
2022-08-23T21:44:20.517Z,79.21
2022-08-23T21:46:49.152Z,79.20
2022-08-23T21:49:18.143Z,79.22
2022-08-23T21:51:46.018Z,78.96
2022-08-23T21:54:15.974Z,78.80
2022-08-23T21:56:45.826Z,78.87
2022-08-23T21:59:18.011Z,78.89
2022-08-23T22:01:46.890Z,79.04
2022-08-23T22:04:16.350Z,78.96
2022-08-23T22:06:47.413Z,78.84
2022-08-23T22:09:25.712Z,78.87
2022-08-23T22:11:55.850Z,79.03
2022-08-23T22:14:31.384Z,79.16
2022-08-23T22:17:00.566Z,79.16
2022-08-23T22:19:28.581Z,79.22
2022-08-23T22:21:56.932Z,79.26
2022-08-23T22:24:26.362Z,79.21
2022-08-23T22:26:55.493Z,79.23
2022-08-23T22:29:24.651Z,79.32
2022-08-23T22:31:52.846Z,79.42
2022-08-23T22:34:20.941Z,79.47
2022-08-23T22:36:51.469Z,79.51
2022-08-23T22:39:22.018Z,79.38
2022-08-23T22:41:50.278Z,79.31
2022-08-23T22:44:18.538Z,79.65
2022-08-23T22:46:46.591Z,79.89
2022-08-23T22:49:14.555Z,79.91
2022-08-23T22:51:42.645Z,79.89
2022-08-23T22:54:12.318Z,79.72
2022-08-23T22:56:49.073Z,79.69
2022-08-23T22:59:20.453Z,79.66
2022-08-23T23:01:54.824Z,79.61
2022-08-23T23:04:26.553Z,79.67
2022-08-23T23:06:55.713Z,79.78
2022-08-23T23:09:25.060Z,79.64
2022-08-23T23:11:54.396Z,79.64
2022-08-23T23:14:22.654Z,79.71
2022-08-23T23:16:50.912Z,79.85
2022-08-23T23:19:39.400Z,79.83
2022-08-23T23:22:09.031Z,79.88
2022-08-23T23:24:39.800Z,80.03
2022-08-23T23:27:08.176Z,80.06
2022-08-23T23:29:36.557Z,80.08
2022-08-23T23:32:05.775Z,80.00
2022-08-23T23:34:33.804Z,79.92
2022-08-23T23:37:02.607Z,80.04
2022-08-23T23:39:30.724Z,80.21
2022-08-23T23:41:58.672Z,80.15
2022-08-23T23:44:31.087Z,80.29
2022-08-23T23:47:03.108Z,80.31
2022-08-23T23:49:32.985Z,80.38
2022-08-23T23:52:05.807Z,80.40
2022-08-23T23:54:35.630Z,80.37
2022-08-23T23:57:06.477Z,80.51
2022-08-23T23:59:35.230Z,80.48
